createdAt,value
2018-07-03T00:03:30.855Z,25.20
2018-07-03T00:08:34.096Z,25.20
2018-07-03T00:13:37.288Z,25.20
2018-07-03T00:18:40.481Z,25.20
2018-07-03T00:23:43.941Z,25.20
2018-07-03T00:28:47.363Z,25.20
2018-07-03T00:33:50.615Z,25.20
2018-07-03T00:38:53.925Z,25.20
2018-07-03T00:43:57.264Z,25.20
2018-07-03T00:49:00.514Z,25.30
2018-07-03T00:54:04.119Z,25.20
2018-07-03T00:59:07.581Z,25.20
2018-07-03T01:04:10.885Z,25.20
2018-07-03T01:09:14.099Z,25.20
2018-07-03T01:14:17.307Z,25.20
2018-07-03T01:19:20.519Z,25.20
2018-07-03T01:24:23.827Z,25.20
2018-07-03T01:29:27.068Z,25.20
2018-07-03T01:34:30.850Z,25.20
2018-07-03T01:39:34.092Z,25.20
2018-07-03T01:44:37.347Z,25.20
2018-07-03T01:49:40.730Z,25.20
2018-07-03T01:54:43.909Z,25.20
2018-07-03T01:59:47.080Z,25.20
2018-07-03T02:04:51.065Z,25.20
2018-07-03T02:09:54.277Z,25.20
2018-07-03T02:14:57.517Z,25.20
2018-07-03T02:20:00.728Z,25.20
2018-07-03T02:25:04.012Z,25.20
2018-07-03T02:30:07.338Z,25.10
2018-07-03T02:35:10.531Z,25.20
2018-07-03T02:40:13.898Z,25.10
2018-07-03T02:45:17.118Z,25.10
2018-07-03T02:50:20.384Z,25.10
2018-07-03T02:55:23.636Z,25.20
2018-07-03T03:00:27.032Z,25.20
2018-07-03T03:05:30.227Z,25.20
2018-07-03T03:10:33.600Z,25.20
2018-07-03T03:15:36.913Z,25.20
2018-07-03T03:20:40.157Z,25.20
2018-07-03T03:25:43.369Z,25.20
2018-07-03T03:30:46.946Z,25.20
2018-07-03T03:35:50.166Z,25.20
2018-07-03T03:40:53.404Z,25.20
2018-07-03T03:45:56.772Z,25.20
2018-07-03T03:51:00.054Z,25.30
2018-07-03T03:56:03.537Z,25.40
2018-07-03T04:01:06.729Z,25.40
2018-07-03T04:06:10.522Z,25.40
2018-07-03T04:11:13.941Z,25.40
2018-07-03T04:16:17.681Z,25.50
2018-07-03T04:21:21.137Z,25.60
2018-07-03T04:26:24.388Z,25.60
2018-07-03T04:36:30.944Z,25.80
2018-07-03T04:41:34.353Z,25.80
2018-07-03T04:46:37.551Z,25.90
2018-07-03T04:51:41.099Z,25.90
2018-07-03T04:56:44.363Z,26.00
2018-07-03T05:01:47.805Z,26.10
2018-07-03T05:06:51.049Z,26.10
2018-07-03T05:11:54.291Z,26.20
2018-07-03T05:16:57.953Z,26.20
2018-07-03T05:22:01.186Z,26.30
2018-07-03T05:27:04.612Z,26.40
2018-07-03T05:32:07.913Z,26.40
2018-07-03T05:37:11.341Z,26.40
2018-07-03T05:42:15.404Z,26.50
2018-07-03T05:47:18.738Z,26.60
2018-07-03T05:52:22.256Z,26.60
2018-07-03T05:57:25.428Z,26.60
2018-07-03T06:02:28.774Z,26.70
2018-07-03T06:07:32.007Z,26.70
2018-07-03T06:12:35.292Z,26.70
2018-07-03T06:17:38.886Z,26.80
2018-07-03T06:22:41.972Z,26.80
2018-07-03T06:27:45.748Z,26.90
2018-07-03T06:32:49.114Z,27.00
2018-07-03T06:37:53.176Z,27.10
2018-07-03T06:42:56.625Z,27.10
2018-07-03T06:47:59.877Z,27.10
2018-07-03T06:53:03.113Z,27.10
2018-07-03T06:58:06.402Z,27.10
2018-07-03T07:03:10.284Z,27.00
2018-07-03T07:08:13.601Z,26.90
2018-07-03T07:13:17.201Z,26.90
2018-07-03T07:23:24.345Z,27.20
2018-07-03T07:28:27.699Z,27.40
2018-07-03T07:33:30.919Z,27.50
2018-07-03T07:38:34.483Z,27.50
2018-07-03T07:48:41.087Z,27.50
2018-07-03T07:53:44.458Z,27.60
2018-07-03T07:58:47.693Z,27.50
2018-07-03T08:03:50.903Z,27.40
2018-07-03T08:08:55.099Z,27.40
2018-07-03T08:13:59.221Z,27.30
2018-07-03T08:19:03.157Z,27.20
2018-07-03T08:24:06.356Z,27.20
2018-07-03T08:29:09.897Z,27.20
2018-07-03T08:34:13.282Z,27.20
2018-07-03T08:39:16.695Z,27.20
2018-07-03T08:44:19.949Z,27.10
2018-07-03T08:49:23.192Z,27.10
2018-07-03T08:54:26.528Z,27.10
2018-07-03T08:59:30.095Z,27.10
2018-07-03T09:04:33.535Z,27.10
2018-07-03T09:09:37.201Z,27.00
2018-07-03T09:14:40.492Z,27.00
2018-07-03T09:19:44.674Z,27.00
2018-07-03T09:24:48.036Z,27.00
2018-07-03T09:29:51.248Z,26.90
2018-07-03T09:34:54.770Z,26.90
2018-07-03T09:39:58.061Z,27.00
2018-07-03T09:45:01.518Z,26.90
2018-07-03T09:50:04.865Z,26.90
2018-07-03T09:55:08.215Z,26.90
2018-07-03T10:00:11.468Z,26.90
2018-07-03T10:05:14.882Z,26.90
2018-07-03T10:10:18.150Z,26.90
2018-07-03T10:20:24.763Z,26.90
2018-07-03T10:25:27.976Z,26.90
2018-07-03T10:30:31.242Z,26.90
2018-07-03T10:35:34.574Z,26.90
2018-07-03T10:40:39.041Z,26.80
2018-07-03T10:45:43.361Z,26.90
2018-07-03T10:50:46.726Z,26.80
2018-07-03T10:55:50.005Z,26.80
2018-07-03T11:00:53.194Z,26.80
2018-07-03T11:05:56.480Z,26.80
2018-07-03T11:10:59.791Z,26.80
2018-07-03T11:16:03.220Z,26.80
2018-07-03T11:21:06.912Z,26.80
2018-07-03T11:26:10.104Z,26.70
2018-07-03T11:31:14.272Z,26.70
2018-07-03T11:36:17.750Z,26.70
2018-07-03T11:41:21.086Z,26.70
2018-07-03T11:46:24.333Z,26.70
2018-07-03T11:51:27.665Z,26.70
2018-07-03T11:56:31.153Z,26.70
2018-07-03T12:01:34.496Z,26.70
2018-07-03T12:06:37.693Z,26.60
2018-07-03T12:11:40.890Z,26.70
2018-07-03T12:16:44.551Z,26.70
2018-07-03T12:21:48.083Z,26.60
2018-07-03T12:26:52.544Z,26.60
2018-07-03T12:31:56.143Z,26.60
2018-07-03T12:37:00.359Z,26.60
2018-07-03T12:42:04.005Z,26.60
2018-07-03T12:47:07.236Z,26.60
2018-07-03T12:52:11.000Z,26.60
2018-07-03T12:57:14.292Z,26.60
2018-07-03T13:02:17.740Z,26.60
2018-07-03T13:07:21.249Z,26.60
2018-07-03T13:12:24.662Z,26.60
2018-07-03T13:17:27.976Z,26.60
2018-07-03T13:22:31.214Z,26.60
2018-07-03T13:27:34.449Z,26.60
2018-07-03T13:32:38.714Z,26.60
2018-07-03T13:37:42.172Z,26.60
2018-07-03T13:42:45.960Z,26.60
2018-07-03T13:47:49.312Z,26.60
2018-07-03T13:52:52.804Z,26.60
2018-07-03T13:57:56.156Z,26.60
2018-07-03T14:02:59.346Z,26.60
2018-07-03T14:08:02.726Z,26.60
2018-07-03T14:13:06.399Z,26.60
2018-07-03T14:18:09.814Z,26.60
2018-07-03T14:23:13.098Z,26.60
2018-07-03T14:28:16.432Z,26.50
2018-07-03T14:33:20.460Z,26.50
2018-07-03T14:38:23.906Z,26.50
2018-07-03T14:43:27.093Z,26.50
2018-07-03T14:48:30.878Z,26.50
2018-07-03T14:53:34.276Z,26.50
2018-07-03T14:58:37.734Z,26.50
2018-07-03T15:03:41.283Z,26.50
2018-07-03T15:08:44.740Z,26.50
2018-07-03T15:13:48.013Z,26.50
2018-07-03T15:18:57.022Z,26.50
2018-07-03T15:24:00.513Z,26.50
2018-07-03T15:29:04.260Z,26.50
2018-07-03T15:34:08.449Z,26.50
2018-07-03T15:39:13.063Z,26.50
2018-07-03T15:44:27.771Z,26.50
2018-07-03T15:49:30.964Z,26.60
2018-07-03T15:54:35.148Z,26.60
2018-07-03T15:59:38.669Z,26.50
2018-07-03T16:04:54.723Z,26.50
2018-07-03T16:09:57.939Z,26.50
2018-07-03T16:15:01.207Z,26.40
2018-07-03T16:20:10.378Z,26.50
2018-07-03T16:25:13.737Z,26.40
2018-07-03T16:30:16.984Z,26.40
2018-07-03T16:35:22.900Z,26.40
2018-07-03T16:40:26.202Z,26.40
2018-07-03T16:45:29.568Z,26.40
2018-07-03T16:50:32.775Z,26.40
2018-07-03T16:55:37.166Z,26.40
2018-07-03T17:00:40.593Z,26.40
2018-07-03T17:05:43.892Z,26.40
2018-07-03T17:10:47.213Z,26.40
2018-07-03T17:15:50.586Z,26.40
2018-07-03T17:20:54.298Z,26.40
2018-07-03T17:25:57.726Z,26.40
2018-07-03T17:31:01.844Z,26.40
2018-07-03T17:36:05.164Z,26.40
2018-07-03T17:41:19.812Z,26.40
2018-07-03T17:46:23.118Z,26.40
2018-07-03T17:51:26.570Z,26.30
2018-07-03T18:01:33.198Z,26.30
2018-07-03T18:11:39.847Z,26.40
2018-07-03T18:16:43.266Z,26.30
2018-07-03T18:21:46.408Z,26.40
2018-07-03T18:26:49.685Z,26.40
2018-07-03T18:31:53.052Z,26.40
2018-07-03T18:36:56.291Z,26.40
2018-07-03T18:41:59.670Z,26.40
2018-07-03T18:47:03.024Z,26.40
2018-07-03T18:52:06.274Z,26.40
2018-07-03T18:57:09.561Z,26.40
2018-07-03T19:02:13.118Z,26.40
2018-07-03T19:07:16.379Z,26.40
2018-07-03T19:12:19.643Z,26.40
2018-07-03T19:17:23.080Z,26.40
2018-07-03T19:22:26.534Z,26.40
2018-07-03T19:27:29.978Z,26.40
2018-07-03T19:32:33.224Z,26.50
2018-07-03T19:37:36.627Z,26.50
2018-07-03T19:43:22.442Z,26.60
2018-07-03T19:48:25.988Z,26.60
2018-07-03T19:53:30.030Z,26.70
2018-07-03T19:58:34.488Z,26.70
2018-07-03T20:03:38.034Z,26.70
2018-07-03T20:08:42.046Z,26.70
2018-07-03T20:13:45.569Z,26.70
2018-07-03T20:18:48.841Z,26.70
2018-07-03T20:23:52.219Z,26.70
2018-07-03T20:28:55.889Z,26.60
2018-07-03T20:33:59.185Z,26.70
2018-07-03T20:39:03.078Z,26.70
2018-07-03T20:44:06.807Z,26.70
2018-07-03T20:49:10.086Z,26.70
2018-07-03T20:54:13.501Z,26.70
2018-07-03T20:59:16.653Z,26.80
2018-07-03T21:09:24.317Z,26.80
2018-07-03T21:14:27.598Z,26.70
2018-07-03T21:19:30.794Z,26.60
2018-07-03T21:24:34.241Z,25.60
2018-07-03T21:29:37.469Z,25.20
2018-07-03T21:34:41.045Z,25.00
2018-07-03T21:39:44.249Z,25.00
2018-07-03T21:44:47.548Z,25.40
2018-07-03T21:49:51.252Z,25.60
2018-07-03T21:54:54.593Z,25.80
2018-07-03T21:59:58.120Z,26.00
2018-07-03T22:05:01.385Z,26.00
2018-07-03T22:10:04.966Z,26.10
2018-07-03T22:15:08.169Z,26.10
2018-07-03T22:20:11.414Z,26.10
2018-07-03T22:25:15.298Z,26.10
2018-07-03T22:30:18.755Z,26.10
2018-07-03T22:35:22.348Z,26.20
2018-07-03T22:40:25.711Z,26.10
2018-07-03T22:45:29.054Z,26.20
2018-07-03T22:50:32.318Z,26.20
2018-07-03T22:55:35.611Z,26.20
2018-07-03T23:00:38.909Z,26.20
2018-07-03T23:10:45.308Z,26.20
2018-07-03T23:15:48.567Z,26.30
2018-07-03T23:20:53.527Z,26.20
2018-07-03T23:25:56.843Z,26.20
2018-07-03T23:31:00.030Z,26.20
2018-07-03T23:36:03.274Z,26.20
2018-07-03T23:41:06.914Z,26.20
2018-07-03T23:46:09.301Z,26.10
2018-07-03T23:51:23.818Z,26.10
2018-07-03T23:56:39.870Z,26.10
